sensor_id;sensor_type;location;lat;lon;timestamp;P1;durP1;ratioP1;P2;durP2;ratioP2
23472;SDS011;11909;52.516;13.564;2022-12-17T00:01:05;132.70;;;46.47;;
23472;SDS011;11909;52.516;13.564;2022-12-17T00:03:55;134.57;;;45.45;;
23472;SDS011;11909;52.516;13.564;2022-12-17T00:06:41;123.63;;;43.58;;
23472;SDS011;11909;52.516;13.564;2022-12-17T00:09:31;129.73;;;42.67;;
23472;SDS011;11909;52.516;13.564;2022-12-17T00:12:18;107.72;;;39.00;;
23472;SDS011;11909;52.516;13.564;2022-12-17T00:15:03;102.10;;;36.75;;
23472;SDS011;11909;52.516;13.564;2022-12-17T00:17:49;122.40;;;42.85;;
23472;SDS011;11909;52.516;13.564;2022-12-17T00:20:34;112.72;;;40.15;;
23472;SDS011;11909;52.516;13.564;2022-12-17T00:23:21;98.78;;;36.22;;
23472;SDS011;11909;52.516;13.564;2022-12-17T00:26:07;105.47;;;36.50;;
23472;SDS011;11909;52.516;13.564;2022-12-17T00:28:53;95.70;;;34.97;;
23472;SDS011;11909;52.516;13.564;2022-12-17T00:31:38;99.70;;;35.50;;
23472;SDS011;11909;52.516;13.564;2022-12-17T00:34:24;94.45;;;34.78;;
23472;SDS011;11909;52.516;13.564;2022-12-17T00:37:09;83.57;;;31.52;;
23472;SDS011;11909;52.516;13.564;2022-12-17T00:39:54;99.80;;;32.50;;
23472;SDS011;11909;52.516;13.564;2022-12-17T00:42:39;96.63;;;34.05;;
23472;SDS011;11909;52.516;13.564;2022-12-17T00:45:26;101.78;;;36.45;;
23472;SDS011;11909;52.516;13.564;2022-12-17T00:48:11;95.75;;;33.55;;
23472;SDS011;11909;52.516;13.564;2022-12-17T00:50:57;87.18;;;31.40;;
23472;SDS011;11909;52.516;13.564;2022-12-17T00:53:42;95.22;;;33.08;;
23472;SDS011;11909;52.516;13.564;2022-12-17T00:56:27;102.38;;;36.17;;
23472;SDS011;11909;52.516;13.564;2022-12-17T00:59:12;104.78;;;36.20;;
23472;SDS011;11909;52.516;13.564;2022-12-17T01:01:59;99.82;;;34.85;;
23472;SDS011;11909;52.516;13.564;2022-12-17T01:04:45;93.57;;;31.85;;
23472;SDS011;11909;52.516;13.564;2022-12-17T01:07:29;94.75;;;33.85;;
23472;SDS011;11909;52.516;13.564;2022-12-17T01:10:15;97.25;;;33.78;;
23472;SDS011;11909;52.516;13.564;2022-12-17T01:13:00;107.30;;;35.28;;
23472;SDS011;11909;52.516;13.564;2022-12-17T01:15:45;99.18;;;33.70;;
23472;SDS011;11909;52.516;13.564;2022-12-17T01:18:32;95.18;;;32.67;;
23472;SDS011;11909;52.516;13.564;2022-12-17T01:21:23;79.78;;;31.00;;
23472;SDS011;11909;52.516;13.564;2022-12-17T01:24:08;77.18;;;29.30;;
23472;SDS011;11909;52.516;13.564;2022-12-17T01:26:53;87.20;;;29.80;;
23472;SDS011;11909;52.516;13.564;2022-12-17T01:29:38;79.43;;;29.67;;
23472;SDS011;11909;52.516;13.564;2022-12-17T01:32:24;80.97;;;30.08;;
23472;SDS011;11909;52.516;13.564;2022-12-17T01:35:10;77.57;;;29.75;;
23472;SDS011;11909;52.516;13.564;2022-12-17T01:37:55;83.55;;;31.02;;
23472;SDS011;11909;52.516;13.564;2022-12-17T01:40:41;78.88;;;29.95;;
23472;SDS011;11909;52.516;13.564;2022-12-17T01:43:30;72.25;;;29.92;;
23472;SDS011;11909;52.516;13.564;2022-12-17T01:46:16;77.47;;;29.25;;
23472;SDS011;11909;52.516;13.564;2022-12-17T01:49:02;78.05;;;28.88;;
23472;SDS011;11909;52.516;13.564;2022-12-17T01:51:48;81.53;;;30.02;;
23472;SDS011;11909;52.516;13.564;2022-12-17T01:54:35;85.03;;;31.75;;
23472;SDS011;11909;52.516;13.564;2022-12-17T01:57:22;92.22;;;32.22;;
23472;SDS011;11909;52.516;13.564;2022-12-17T02:00:10;87.70;;;31.52;;
23472;SDS011;11909;52.516;13.564;2022-12-17T02:02:58;89.13;;;29.52;;
23472;SDS011;11909;52.516;13.564;2022-12-17T02:05:44;82.70;;;29.88;;
23472;SDS011;11909;52.516;13.564;2022-12-17T02:08:39;69.13;;;27.80;;
23472;SDS011;11909;52.516;13.564;2022-12-17T02:11:30;74.72;;;27.98;;
23472;SDS011;11909;52.516;13.564;2022-12-17T02:14:25;69.22;;;27.02;;
23472;SDS011;11909;52.516;13.564;2022-12-17T02:17:17;73.13;;;27.52;;
23472;SDS011;11909;52.516;13.564;2022-12-17T02:20:10;72.30;;;28.25;;
23472;SDS011;11909;52.516;13.564;2022-12-17T02:23:13;76.43;;;28.85;;
23472;SDS011;11909;52.516;13.564;2022-12-17T02:26:07;86.10;;;29.75;;
23472;SDS011;11909;52.516;13.564;2022-12-17T02:28:59;70.75;;;28.27;;
23472;SDS011;11909;52.516;13.564;2022-12-17T02:31:47;72.78;;;26.98;;
23472;SDS011;11909;52.516;13.564;2022-12-17T02:34:41;67.85;;;26.77;;
23472;SDS011;11909;52.516;13.564;2022-12-17T02:37:27;66.93;;;26.63;;
23472;SDS011;11909;52.516;13.564;2022-12-17T02:40:12;71.00;;;27.35;;
23472;SDS011;11909;52.516;13.564;2022-12-17T02:42:58;83.50;;;29.60;;
23472;SDS011;11909;52.516;13.564;2022-12-17T02:45:45;84.40;;;29.98;;
23472;SDS011;11909;52.516;13.564;2022-12-17T02:48:30;82.30;;;30.27;;
23472;SDS011;11909;52.516;13.564;2022-12-17T02:51:16;76.10;;;28.38;;
23472;SDS011;11909;52.516;13.564;2022-12-17T02:54:02;80.00;;;31.23;;
23472;SDS011;11909;52.516;13.564;2022-12-17T02:56:48;74.82;;;27.77;;
23472;SDS011;11909;52.516;13.564;2022-12-17T02:59:33;69.25;;;27.17;;
23472;SDS011;11909;52.516;13.564;2022-12-17T03:02:20;66.47;;;26.90;;
23472;SDS011;11909;52.516;13.564;2022-12-17T03:05:07;71.93;;;27.35;;
23472;SDS011;11909;52.516;13.564;2022-12-17T03:08:10;79.00;;;29.02;;
23472;SDS011;11909;52.516;13.564;2022-12-17T03:10:55;77.10;;;28.08;;
23472;SDS011;11909;52.516;13.564;2022-12-17T03:13:40;70.75;;;26.55;;
23472;SDS011;11909;52.516;13.564;2022-12-17T03:16:25;65.00;;;25.23;;
23472;SDS011;11909;52.516;13.564;2022-12-17T03:19:12;77.47;;;27.08;;
23472;SDS011;11909;52.516;13.564;2022-12-17T03:21:57;57.85;;;23.52;;
23472;SDS011;11909;52.516;13.564;2022-12-17T03:24:43;60.33;;;23.02;;
23472;SDS011;11909;52.516;13.564;2022-12-17T03:27:28;67.63;;;26.00;;
23472;SDS011;11909;52.516;13.564;2022-12-17T03:30:25;62.53;;;25.50;;
23472;SDS011;11909;52.516;13.564;2022-12-17T03:33:14;65.97;;;25.42;;
23472;SDS011;11909;52.516;13.564;2022-12-17T03:36:01;68.55;;;26.27;;
23472;SDS011;11909;52.516;13.564;2022-12-17T03:38:47;64.82;;;24.63;;
23472;SDS011;11909;52.516;13.564;2022-12-17T03:41:32;70.88;;;26.70;;
23472;SDS011;11909;52.516;13.564;2022-12-17T03:44:17;64.72;;;25.75;;
23472;SDS011;11909;52.516;13.564;2022-12-17T03:47:02;72.20;;;26.73;;
23472;SDS011;11909;52.516;13.564;2022-12-17T03:49:48;72.30;;;26.88;;
23472;SDS011;11909;52.516;13.564;2022-12-17T03:52:34;63.53;;;25.10;;
23472;SDS011;11909;52.516;13.564;2022-12-17T03:55:20;65.13;;;25.85;;
23472;SDS011;11909;52.516;13.564;2022-12-17T03:58:01;66.60;;;26.27;;
23472;SDS011;11909;52.516;13.564;2022-12-17T04:00:46;65.55;;;26.00;;
23472;SDS011;11909;52.516;13.564;2022-12-17T04:03:32;64.20;;;24.60;;
23472;SDS011;11909;52.516;13.564;2022-12-17T04:06:17;68.63;;;25.75;;
23472;SDS011;11909;52.516;13.564;2022-12-17T04:09:04;59.92;;;24.48;;
23472;SDS011;11909;52.516;13.564;2022-12-17T04:11:49;63.42;;;25.35;;
23472;SDS011;11909;52.516;13.564;2022-12-17T04:14:35;60.10;;;24.58;;
23472;SDS011;11909;52.516;13.564;2022-12-17T04:17:20;70.05;;;25.10;;
23472;SDS011;11909;52.516;13.564;2022-12-17T04:20:05;69.45;;;25.73;;
23472;SDS011;11909;52.516;13.564;2022-12-17T04:22:51;71.38;;;26.17;;
23472;SDS011;11909;52.516;13.564;2022-12-17T04:25:38;73.60;;;26.35;;
23472;SDS011;11909;52.516;13.564;2022-12-17T04:28:23;70.78;;;27.98;;
23472;SDS011;11909;52.516;13.564;2022-12-17T04:31:08;75.15;;;27.58;;
23472;SDS011;11909;52.516;13.564;2022-12-17T04:33:56;73.72;;;26.27;;
23472;SDS011;11909;52.516;13.564;2022-12-17T04:36:41;63.08;;;25.38;;
23472;SDS011;11909;52.516;13.564;2022-12-17T04:39:26;64.18;;;25.02;;
23472;SDS011;11909;52.516;13.564;2022-12-17T04:42:13;72.70;;;27.63;;
23472;SDS011;11909;52.516;13.564;2022-12-17T04:44:58;63.97;;;26.88;;
23472;SDS011;11909;52.516;13.564;2022-12-17T04:47:44;63.88;;;26.30;;
23472;SDS011;11909;52.516;13.564;2022-12-17T04:50:29;74.10;;;27.05;;
23472;SDS011;11909;52.516;13.564;2022-12-17T04:53:15;70.65;;;27.15;;
23472;SDS011;11909;52.516;13.564;2022-12-17T04:56:00;74.90;;;26.25;;
23472;SDS011;11909;52.516;13.564;2022-12-17T04:58:47;71.05;;;25.60;;
23472;SDS011;11909;52.516;13.564;2022-12-17T05:01:34;65.68;;;25.50;;
23472;SDS011;11909;52.516;13.564;2022-12-17T05:04:20;67.88;;;24.92;;
23472;SDS011;11909;52.516;13.564;2022-12-17T05:07:05;71.20;;;25.23;;
23472;SDS011;11909;52.516;13.564;2022-12-17T05:09:50;70.55;;;25.73;;
23472;SDS011;11909;52.516;13.564;2022-12-17T05:12:35;67.65;;;25.00;;
23472;SDS011;11909;52.516;13.564;2022-12-17T05:15:22;74.03;;;27.13;;
23472;SDS011;11909;52.516;13.564;2022-12-17T05:18:07;67.05;;;24.67;;
23472;SDS011;11909;52.516;13.564;2022-12-17T05:20:53;67.00;;;26.17;;
23472;SDS011;11909;52.516;13.564;2022-12-17T05:23:38;59.17;;;23.15;;
23472;SDS011;11909;52.516;13.564;2022-12-17T05:26:24;65.60;;;24.65;;
23472;SDS011;11909;52.516;13.564;2022-12-17T05:29:10;65.47;;;25.63;;
23472;SDS011;11909;52.516;13.564;2022-12-17T05:31:57;63.10;;;23.75;;
23472;SDS011;11909;52.516;13.564;2022-12-17T05:34:42;69.70;;;26.35;;
23472;SDS011;11909;52.516;13.564;2022-12-17T05:37:28;61.60;;;24.83;;
23472;SDS011;11909;52.516;13.564;2022-12-17T05:40:13;56.88;;;24.02;;
23472;SDS011;11909;52.516;13.564;2022-12-17T05:42:58;68.57;;;25.42;;
23472;SDS011;11909;52.516;13.564;2022-12-17T05:45:45;65.97;;;25.65;;
23472;SDS011;11909;52.516;13.564;2022-12-17T05:48:32;66.80;;;24.77;;
23472;SDS011;11909;52.516;13.564;2022-12-17T05:51:18;71.20;;;26.13;;
23472;SDS011;11909;52.516;13.564;2022-12-17T05:54:04;64.90;;;24.13;;
23472;SDS011;11909;52.516;13.564;2022-12-17T05:56:50;69.90;;;25.00;;
23472;SDS011;11909;52.516;13.564;2022-12-17T05:59:35;59.42;;;24.05;;
23472;SDS011;11909;52.516;13.564;2022-12-17T06:02:20;60.63;;;24.60;;
23472;SDS011;11909;52.516;13.564;2022-12-17T06:05:07;65.95;;;24.30;;
23472;SDS011;11909;52.516;13.564;2022-12-17T06:08:00;54.22;;;23.20;;
23472;SDS011;11909;52.516;13.564;2022-12-17T06:10:46;63.25;;;23.83;;
23472;SDS011;11909;52.516;13.564;2022-12-17T06:13:43;68.50;;;23.85;;
23472;SDS011;11909;52.516;13.564;2022-12-17T06:16:28;58.72;;;22.10;;
23472;SDS011;11909;52.516;13.564;2022-12-17T06:19:13;70.72;;;25.25;;
23472;SDS011;11909;52.516;13.564;2022-12-17T06:22:00;66.85;;;24.10;;
23472;SDS011;11909;52.516;13.564;2022-12-17T06:24:46;65.43;;;26.08;;
23472;SDS011;11909;52.516;13.564;2022-12-17T06:27:31;74.13;;;26.00;;
23472;SDS011;11909;52.516;13.564;2022-12-17T06:30:31;68.57;;;25.65;;
23472;SDS011;11909;52.516;13.564;2022-12-17T06:33:16;69.10;;;26.45;;
23472;SDS011;11909;52.516;13.564;2022-12-17T06:36:02;69.38;;;25.33;;
23472;SDS011;11909;52.516;13.564;2022-12-17T06:38:49;61.85;;;23.40;;
23472;SDS011;11909;52.516;13.564;2022-12-17T06:41:31;69.18;;;27.15;;
23472;SDS011;11909;52.516;13.564;2022-12-17T06:44:17;63.10;;;25.08;;
23472;SDS011;11909;52.516;13.564;2022-12-17T06:47:02;60.50;;;23.75;;
23472;SDS011;11909;52.516;13.564;2022-12-17T06:49:48;67.30;;;25.48;;
23472;SDS011;11909;52.516;13.564;2022-12-17T06:52:33;60.38;;;23.70;;
23472;SDS011;11909;52.516;13.564;2022-12-17T06:55:20;57.22;;;24.65;;
23472;SDS011;11909;52.516;13.564;2022-12-17T06:58:05;57.97;;;23.67;;
23472;SDS011;11909;52.516;13.564;2022-12-17T07:00:50;62.40;;;24.25;;
23472;SDS011;11909;52.516;13.564;2022-12-17T07:03:36;61.05;;;24.17;;
23472;SDS011;11909;52.516;13.564;2022-12-17T07:06:21;58.55;;;24.42;;
23472;SDS011;11909;52.516;13.564;2022-12-17T07:09:09;56.22;;;24.10;;
23472;SDS011;11909;52.516;13.564;2022-12-17T07:11:55;60.42;;;26.75;;
23472;SDS011;11909;52.516;13.564;2022-12-17T07:14:41;59.47;;;25.75;;
23472;SDS011;11909;52.516;13.564;2022-12-17T07:17:26;63.25;;;25.55;;
23472;SDS011;11909;52.516;13.564;2022-12-17T07:20:11;64.78;;;25.25;;
23472;SDS011;11909;52.516;13.564;2022-12-17T07:22:56;62.40;;;25.90;;
23472;SDS011;11909;52.516;13.564;2022-12-17T07:25:42;64.97;;;24.90;;
23472;SDS011;11909;52.516;13.564;2022-12-17T07:28:28;61.10;;;25.77;;
23472;SDS011;11909;52.516;13.564;2022-12-17T07:31:19;69.28;;;26.75;;
23472;SDS011;11909;52.516;13.564;2022-12-17T07:34:04;68.03;;;27.08;;
23472;SDS011;11909;52.516;13.564;2022-12-17T07:36:49;67.75;;;27.15;;
23472;SDS011;11909;52.516;13.564;2022-12-17T07:39:35;66.85;;;27.75;;
23472;SDS011;11909;52.516;13.564;2022-12-17T07:42:20;67.10;;;28.75;;
23472;SDS011;11909;52.516;13.564;2022-12-17T07:45:07;67.20;;;27.05;;
23472;SDS011;11909;52.516;13.564;2022-12-17T07:47:53;64.40;;;27.40;;
23472;SDS011;11909;52.516;13.564;2022-12-17T07:50:39;65.13;;;25.85;;
23472;SDS011;11909;52.516;13.564;2022-12-17T07:53:24;59.35;;;23.40;;
23472;SDS011;11909;52.516;13.564;2022-12-17T07:56:09;60.03;;;26.25;;
23472;SDS011;11909;52.516;13.564;2022-12-17T07:58:55;68.20;;;26.15;;
23472;SDS011;11909;52.516;13.564;2022-12-17T08:01:41;67.05;;;27.08;;
23472;SDS011;11909;52.516;13.564;2022-12-17T08:04:27;66.55;;;27.13;;
23472;SDS011;11909;52.516;13.564;2022-12-17T08:07:12;72.22;;;29.45;;
23472;SDS011;11909;52.516;13.564;2022-12-17T08:09:57;73.03;;;28.25;;
23472;SDS011;11909;52.516;13.564;2022-12-17T08:12:52;73.30;;;27.20;;
23472;SDS011;11909;52.516;13.564;2022-12-17T08:15:39;68.28;;;28.20;;
23472;SDS011;11909;52.516;13.564;2022-12-17T08:18:26;69.45;;;28.75;;
23472;SDS011;11909;52.516;13.564;2022-12-17T08:21:12;65.80;;;27.10;;
23472;SDS011;11909;52.516;13.564;2022-12-17T08:23:57;69.50;;;28.30;;
23472;SDS011;11909;52.516;13.564;2022-12-17T08:26:42;65.80;;;28.40;;
23472;SDS011;11909;52.516;13.564;2022-12-17T08:29:27;65.95;;;27.40;;
23472;SDS011;11909;52.516;13.564;2022-12-17T08:32:13;72.28;;;29.30;;
23472;SDS011;11909;52.516;13.564;2022-12-17T08:35:00;64.18;;;28.17;;
23472;SDS011;11909;52.516;13.564;2022-12-17T08:37:45;76.95;;;28.58;;
23472;SDS011;11909;52.516;13.564;2022-12-17T08:40:30;72.97;;;30.17;;
23472;SDS011;11909;52.516;13.564;2022-12-17T08:43:15;69.57;;;28.83;;
23472;SDS011;11909;52.516;13.564;2022-12-17T08:46:01;69.55;;;28.92;;
23472;SDS011;11909;52.516;13.564;2022-12-17T08:48:46;72.32;;;29.23;;
23472;SDS011;11909;52.516;13.564;2022-12-17T08:51:33;71.13;;;29.92;;
23472;SDS011;11909;52.516;13.564;2022-12-17T08:54:18;69.40;;;28.80;;
23472;SDS011;11909;52.516;13.564;2022-12-17T08:57:03;61.38;;;27.25;;
23472;SDS011;11909;52.516;13.564;2022-12-17T08:59:57;59.15;;;27.33;;
23472;SDS011;11909;52.516;13.564;2022-12-17T09:02:42;68.97;;;28.42;;
23472;SDS011;11909;52.516;13.564;2022-12-17T09:05:28;68.93;;;28.58;;
23472;SDS011;11909;52.516;13.564;2022-12-17T09:08:14;62.85;;;28.33;;
23472;SDS011;11909;52.516;13.564;2022-12-17T09:11:07;64.45;;;27.65;;
23472;SDS011;11909;52.516;13.564;2022-12-17T09:13:53;71.38;;;30.65;;
23472;SDS011;11909;52.516;13.564;2022-12-17T09:16:49;64.97;;;27.88;;
23472;SDS011;11909;52.516;13.564;2022-12-17T09:19:35;66.25;;;29.05;;
23472;SDS011;11909;52.516;13.564;2022-12-17T09:22:20;65.00;;;28.77;;
23472;SDS011;11909;52.516;13.564;2022-12-17T09:25:07;70.68;;;30.95;;
23472;SDS011;11909;52.516;13.564;2022-12-17T09:27:52;71.85;;;30.02;;
23472;SDS011;11909;52.516;13.564;2022-12-17T09:30:37;66.82;;;28.50;;
23472;SDS011;11909;52.516;13.564;2022-12-17T09:33:23;65.88;;;30.05;;
23472;SDS011;11909;52.516;13.564;2022-12-17T09:36:08;62.38;;;28.65;;
23472;SDS011;11909;52.516;13.564;2022-12-17T09:38:53;66.32;;;29.95;;
23472;SDS011;11909;52.516;13.564;2022-12-17T09:41:41;65.97;;;31.02;;
23472;SDS011;11909;52.516;13.564;2022-12-17T09:44:36;67.75;;;30.13;;
23472;SDS011;11909;52.516;13.564;2022-12-17T09:47:29;69.00;;;32.17;;
23472;SDS011;11909;52.516;13.564;2022-12-17T09:50:26;68.47;;;32.20;;
23472;SDS011;11909;52.516;13.564;2022-12-17T09:53:16;66.78;;;30.73;;
23472;SDS011;11909;52.516;13.564;2022-12-17T09:56:05;66.53;;;30.80;;
23472;SDS011;11909;52.516;13.564;2022-12-17T09:58:55;63.97;;;31.38;;
23472;SDS011;11909;52.516;13.564;2022-12-17T10:01:41;71.35;;;31.17;;
23472;SDS011;11909;52.516;13.564;2022-12-17T10:04:28;68.55;;;32.55;;
23472;SDS011;11909;52.516;13.564;2022-12-17T10:07:18;67.45;;;30.65;;
23472;SDS011;11909;52.516;13.564;2022-12-17T10:10:11;64.20;;;31.13;;
23472;SDS011;11909;52.516;13.564;2022-12-17T10:13:00;67.18;;;29.70;;
23472;SDS011;11909;52.516;13.564;2022-12-17T10:15:47;65.13;;;30.25;;
23472;SDS011;11909;52.516;13.564;2022-12-17T10:18:32;60.65;;;29.25;;
23472;SDS011;11909;52.516;13.564;2022-12-17T10:21:17;70.38;;;32.35;;
23472;SDS011;11909;52.516;13.564;2022-12-17T10:24:03;65.95;;;30.35;;
23472;SDS011;11909;52.516;13.564;2022-12-17T10:26:49;62.25;;;29.00;;
23472;SDS011;11909;52.516;13.564;2022-12-17T10:29:34;63.53;;;28.88;;
23472;SDS011;11909;52.516;13.564;2022-12-17T10:32:22;68.10;;;30.23;;
23472;SDS011;11909;52.516;13.564;2022-12-17T10:35:11;67.78;;;30.63;;
23472;SDS011;11909;52.516;13.564;2022-12-17T10:38:08;74.43;;;31.38;;
23472;SDS011;11909;52.516;13.564;2022-12-17T10:40:54;84.38;;;36.22;;
23472;SDS011;11909;52.516;13.564;2022-12-17T10:43:40;64.38;;;29.42;;
23472;SDS011;11909;52.516;13.564;2022-12-17T10:46:26;71.43;;;31.63;;
23472;SDS011;11909;52.516;13.564;2022-12-17T10:49:14;73.35;;;30.50;;
23472;SDS011;11909;52.516;13.564;2022-12-17T10:52:03;65.40;;;29.75;;
23472;SDS011;11909;52.516;13.564;2022-12-17T10:54:56;72.72;;;30.63;;
23472;SDS011;11909;52.516;13.564;2022-12-17T10:57:44;64.30;;;30.30;;
23472;SDS011;11909;52.516;13.564;2022-12-17T11:00:32;64.30;;;30.80;;
23472;SDS011;11909;52.516;13.564;2022-12-17T11:03:27;71.90;;;30.67;;
23472;SDS011;11909;52.516;13.564;2022-12-17T11:06:23;68.15;;;31.80;;
23472;SDS011;11909;52.516;13.564;2022-12-17T11:09:17;64.82;;;29.80;;
23472;SDS011;11909;52.516;13.564;2022-12-17T11:12:15;67.32;;;30.40;;
23472;SDS011;11909;52.516;13.564;2022-12-17T11:15:07;70.28;;;31.38;;
23472;SDS011;11909;52.516;13.564;2022-12-17T11:18:02;75.30;;;33.45;;
23472;SDS011;11909;52.516;13.564;2022-12-17T11:20:51;66.95;;;30.95;;
23472;SDS011;11909;52.516;13.564;2022-12-17T11:23:44;70.60;;;31.30;;
23472;SDS011;11909;52.516;13.564;2022-12-17T11:26:33;62.80;;;29.90;;
23472;SDS011;11909;52.516;13.564;2022-12-17T11:29:21;65.00;;;29.95;;
23472;SDS011;11909;52.516;13.564;2022-12-17T11:32:12;70.43;;;30.83;;
23472;SDS011;11909;52.516;13.564;2022-12-17T11:35:15;63.30;;;30.67;;
23472;SDS011;11909;52.516;13.564;2022-12-17T11:38:08;67.38;;;31.50;;
23472;SDS011;11909;52.516;13.564;2022-12-17T11:41:03;62.78;;;29.65;;
23472;SDS011;11909;52.516;13.564;2022-12-17T11:43:59;69.43;;;30.90;;
23472;SDS011;11909;52.516;13.564;2022-12-17T11:46:49;63.67;;;29.95;;
23472;SDS011;11909;52.516;13.564;2022-12-17T11:49:44;64.82;;;30.70;;
23472;SDS011;11909;52.516;13.564;2022-12-17T11:52:39;66.25;;;32.33;;
23472;SDS011;11909;52.516;13.564;2022-12-17T11:55:35;76.88;;;33.25;;
23472;SDS011;11909;52.516;13.564;2022-12-17T11:58:29;69.30;;;32.83;;
23472;SDS011;11909;52.516;13.564;2022-12-17T12:01:23;73.47;;;32.90;;
23472;SDS011;11909;52.516;13.564;2022-12-17T12:04:16;76.82;;;34.20;;
23472;SDS011;11909;52.516;13.564;2022-12-17T12:07:14;71.20;;;31.23;;
23472;SDS011;11909;52.516;13.564;2022-12-17T12:10:07;76.72;;;33.78;;
23472;SDS011;11909;52.516;13.564;2022-12-17T12:13:01;72.25;;;33.00;;
23472;SDS011;11909;52.516;13.564;2022-12-17T12:15:59;70.45;;;31.77;;
23472;SDS011;11909;52.516;13.564;2022-12-17T12:18:54;73.05;;;32.25;;
23472;SDS011;11909;52.516;13.564;2022-12-17T12:21:49;76.35;;;32.58;;
23472;SDS011;11909;52.516;13.564;2022-12-17T12:24:46;71.43;;;31.23;;
23472;SDS011;11909;52.516;13.564;2022-12-17T12:27:44;73.80;;;31.27;;
23472;SDS011;11909;52.516;13.564;2022-12-17T12:30:38;78.82;;;32.95;;
23472;SDS011;11909;52.516;13.564;2022-12-17T12:33:48;77.35;;;32.03;;
23472;SDS011;11909;52.516;13.564;2022-12-17T12:36:37;75.10;;;34.05;;
23472;SDS011;11909;52.516;13.564;2022-12-17T12:39:25;71.70;;;32.28;;
23472;SDS011;11909;52.516;13.564;2022-12-17T12:42:16;74.53;;;32.42;;
23472;SDS011;11909;52.516;13.564;2022-12-17T12:45:24;93.57;;;40.40;;
23472;SDS011;11909;52.516;13.564;2022-12-17T12:48:32;81.07;;;35.25;;
23472;SDS011;11909;52.516;13.564;2022-12-17T12:51:26;77.18;;;34.45;;
23472;SDS011;11909;52.516;13.564;2022-12-17T12:54:20;78.35;;;34.25;;
23472;SDS011;11909;52.516;13.564;2022-12-17T12:57:30;86.97;;;35.95;;
23472;SDS011;11909;52.516;13.564;2022-12-17T13:00:27;78.20;;;33.80;;
23472;SDS011;11909;52.516;13.564;2022-12-17T13:06:06;91.57;;;34.53;;
23472;SDS011;11909;52.516;13.564;2022-12-17T13:08:34;85.10;;;35.20;;
23472;SDS011;11909;52.516;13.564;2022-12-17T13:11:10;76.32;;;33.75;;
23472;SDS011;11909;52.516;13.564;2022-12-17T13:13:53;77.68;;;34.92;;
23472;SDS011;11909;52.516;13.564;2022-12-17T13:16:31;85.75;;;36.30;;
23472;SDS011;11909;52.516;13.564;2022-12-17T13:19:04;85.88;;;37.33;;
23472;SDS011;11909;52.516;13.564;2022-12-17T13:21:46;73.07;;;33.72;;
23472;SDS011;11909;52.516;13.564;2022-12-17T13:24:22;82.53;;;36.50;;
23472;SDS011;11909;52.516;13.564;2022-12-17T13:26:51;84.13;;;36.63;;
23472;SDS011;11909;52.516;13.564;2022-12-17T13:29:23;79.93;;;34.08;;
23472;SDS011;11909;52.516;13.564;2022-12-17T13:32:02;79.25;;;35.83;;
23472;SDS011;11909;52.516;13.564;2022-12-17T13:34:39;83.30;;;37.50;;
23472;SDS011;11909;52.516;13.564;2022-12-17T13:37:21;88.07;;;39.75;;
23472;SDS011;11909;52.516;13.564;2022-12-17T13:39:59;79.68;;;36.63;;
23472;SDS011;11909;52.516;13.564;2022-12-17T13:42:39;78.00;;;35.80;;
23472;SDS011;11909;52.516;13.564;2022-12-17T13:45:11;82.20;;;37.97;;
23472;SDS011;11909;52.516;13.564;2022-12-17T13:50:22;83.68;;;35.47;;
23472;SDS011;11909;52.516;13.564;2022-12-17T13:53:13;71.78;;;34.13;;
23472;SDS011;11909;52.516;13.564;2022-12-17T13:55:48;73.20;;;33.70;;
23472;SDS011;11909;52.516;13.564;2022-12-17T13:58:20;77.35;;;33.60;;
23472;SDS011;11909;52.516;13.564;2022-12-17T14:00:49;73.22;;;35.38;;
23472;SDS011;11909;52.516;13.564;2022-12-17T14:03:19;80.43;;;35.75;;
23472;SDS011;11909;52.516;13.564;2022-12-17T14:08:38;73.88;;;34.22;;
23472;SDS011;11909;52.516;13.564;2022-12-17T14:11:06;77.97;;;35.33;;
23472;SDS011;11909;52.516;13.564;2022-12-17T14:13:51;76.05;;;34.92;;
23472;SDS011;11909;52.516;13.564;2022-12-17T14:16:19;81.18;;;35.03;;
23472;SDS011;11909;52.516;13.564;2022-12-17T14:18:49;80.55;;;34.70;;
23472;SDS011;11909;52.516;13.564;2022-12-17T14:21:22;83.45;;;34.45;;
23472;SDS011;11909;52.516;13.564;2022-12-17T14:23:52;83.53;;;34.65;;
23472;SDS011;11909;52.516;13.564;2022-12-17T14:26:22;77.15;;;34.67;;
23472;SDS011;11909;52.516;13.564;2022-12-17T14:28:50;73.22;;;34.47;;
23472;SDS011;11909;52.516;13.564;2022-12-17T14:31:21;86.45;;;33.70;;
23472;SDS011;11909;52.516;13.564;2022-12-17T14:34:00;76.03;;;33.22;;
23472;SDS011;11909;52.516;13.564;2022-12-17T14:36:32;77.65;;;33.90;;
23472;SDS011;11909;52.516;13.564;2022-12-17T14:39:03;75.22;;;31.85;;
23472;SDS011;11909;52.516;13.564;2022-12-17T14:41:41;78.30;;;32.77;;
23472;SDS011;11909;52.516;13.564;2022-12-17T14:44:26;77.07;;;34.10;;
23472;SDS011;11909;52.516;13.564;2022-12-17T14:47:05;83.60;;;33.73;;
23472;SDS011;11909;52.516;13.564;2022-12-17T14:49:37;76.85;;;33.38;;
23472;SDS011;11909;52.516;13.564;2022-12-17T14:52:22;74.93;;;32.88;;
23472;SDS011;11909;52.516;13.564;2022-12-17T14:54:57;75.38;;;31.48;;
23472;SDS011;11909;52.516;13.564;2022-12-17T14:57:25;83.35;;;34.13;;
23472;SDS011;11909;52.516;13.564;2022-12-17T14:59:53;78.68;;;35.45;;
23472;SDS011;11909;52.516;13.564;2022-12-17T15:02:22;80.25;;;35.83;;
23472;SDS011;11909;52.516;13.564;2022-12-17T15:04:52;71.40;;;32.53;;
23472;SDS011;11909;52.516;13.564;2022-12-17T15:07:24;76.82;;;36.03;;
23472;SDS011;11909;52.516;13.564;2022-12-17T15:09:53;80.65;;;35.03;;
23472;SDS011;11909;52.516;13.564;2022-12-17T15:12:23;70.53;;;30.77;;
23472;SDS011;11909;52.516;13.564;2022-12-17T15:14:51;81.63;;;32.97;;
23472;SDS011;11909;52.516;13.564;2022-12-17T15:17:19;70.95;;;32.90;;
23472;SDS011;11909;52.516;13.564;2022-12-17T15:19:47;73.82;;;33.75;;
23472;SDS011;11909;52.516;13.564;2022-12-17T15:22:21;80.28;;;33.58;;
23472;SDS011;11909;52.516;13.564;2022-12-17T15:24:49;77.13;;;33.17;;
23472;SDS011;11909;52.516;13.564;2022-12-17T15:27:17;68.85;;;31.92;;
23472;SDS011;11909;52.516;13.564;2022-12-17T15:29:46;75.50;;;31.35;;
23472;SDS011;11909;52.516;13.564;2022-12-17T15:32:16;72.75;;;31.23;;
23472;SDS011;11909;52.516;13.564;2022-12-17T15:34:44;76.25;;;32.03;;
23472;SDS011;11909;52.516;13.564;2022-12-17T15:37:13;77.78;;;32.88;;
23472;SDS011;11909;52.516;13.564;2022-12-17T15:39:47;74.82;;;32.60;;
23472;SDS011;11909;52.516;13.564;2022-12-17T15:42:16;74.72;;;31.05;;
23472;SDS011;11909;52.516;13.564;2022-12-17T15:45:03;68.07;;;31.42;;
23472;SDS011;11909;52.516;13.564;2022-12-17T15:47:31;75.35;;;32.22;;
23472;SDS011;11909;52.516;13.564;2022-12-17T15:49:59;71.63;;;31.35;;
23472;SDS011;11909;52.516;13.564;2022-12-17T15:52:26;71.88;;;31.58;;
23472;SDS011;11909;52.516;13.564;2022-12-17T15:54:54;65.38;;;28.73;;
23472;SDS011;11909;52.516;13.564;2022-12-17T15:57:21;69.60;;;30.63;;
23472;SDS011;11909;52.516;13.564;2022-12-17T15:59:49;68.13;;;28.75;;